sensor_id;sensor_type;location;lat;lon;timestamp;temperature;humidity
11549;DHT22;61444;59.472;18.306;2022-07-03T00:01:43;15.40;99.90
11549;DHT22;61444;59.472;18.306;2022-07-03T00:03:52;15.20;99.90
11549;DHT22;61444;59.472;18.306;2022-07-03T00:06:00;15.10;99.90
11549;DHT22;61444;59.472;18.306;2022-07-03T00:08:10;15.00;99.90
11549;DHT22;61444;59.472;18.306;2022-07-03T00:10:19;14.80;99.90
11549;DHT22;61444;59.472;18.306;2022-07-03T00:12:29;14.70;99.90
11549;DHT22;61444;59.472;18.306;2022-07-03T00:14:38;14.70;99.90
11549;DHT22;61444;59.472;18.306;2022-07-03T00:16:47;14.70;99.90
11549;DHT22;61444;59.472;18.306;2022-07-03T00:18:55;14.70;99.90
11549;DHT22;61444;59.472;18.306;2022-07-03T00:21:05;14.60;99.90
11549;DHT22;61444;59.472;18.306;2022-07-03T00:23:18;14.60;99.90
11549;DHT22;61444;59.472;18.306;2022-07-03T00:25:29;14.50;99.90
11549;DHT22;61444;59.472;18.306;2022-07-03T00:27:43;14.50;99.90
11549;DHT22;61444;59.472;18.306;2022-07-03T00:29:56;14.50;99.90
11549;DHT22;61444;59.472;18.306;2022-07-03T00:32:07;14.40;99.90
11549;DHT22;61444;59.472;18.306;2022-07-03T00:34:17;14.40;99.90
11549;DHT22;61444;59.472;18.306;2022-07-03T00:36:30;14.40;99.90
11549;DHT22;61444;59.472;18.306;2022-07-03T00:38:44;14.30;99.90
11549;DHT22;61444;59.472;18.306;2022-07-03T00:40:53;14.30;99.90
11549;DHT22;61444;59.472;18.306;2022-07-03T00:43:02;14.20;99.90
11549;DHT22;61444;59.472;18.306;2022-07-03T00:45:12;14.10;99.90
11549;DHT22;61444;59.472;18.306;2022-07-03T00:47:25;14.10;99.90
11549;DHT22;61444;59.472;18.306;2022-07-03T00:49:35;14.00;99.90
11549;DHT22;61444;59.472;18.306;2022-07-03T00:51:46;14.00;99.90
11549;DHT22;61444;59.472;18.306;2022-07-03T00:54:00;14.00;99.90
11549;DHT22;61444;59.472;18.306;2022-07-03T00:56:11;13.90;99.90
11549;DHT22;61444;59.472;18.306;2022-07-03T00:58:21;13.90;99.90
11549;DHT22;61444;59.472;18.306;2022-07-03T01:00:31;13.90;99.90
11549;DHT22;61444;59.472;18.306;2022-07-03T01:02:48;13.90;99.90
11549;DHT22;61444;59.472;18.306;2022-07-03T01:05:02;13.80;99.90
11549;DHT22;61444;59.472;18.306;2022-07-03T01:07:22;13.80;99.90
11549;DHT22;61444;59.472;18.306;2022-07-03T01:09:45;13.80;99.90
11549;DHT22;61444;59.472;18.306;2022-07-03T01:12:03;13.80;99.90
11549;DHT22;61444;59.472;18.306;2022-07-03T01:14:18;13.70;99.90
11549;DHT22;61444;59.472;18.306;2022-07-03T01:16:33;13.70;99.90
11549;DHT22;61444;59.472;18.306;2022-07-03T01:18:44;13.60;99.90
11549;DHT22;61444;59.472;18.306;2022-07-03T01:21:18;13.60;99.90
11549;DHT22;61444;59.472;18.306;2022-07-03T01:23:35;13.50;99.90
11549;DHT22;61444;59.472;18.306;2022-07-03T01:25:52;13.60;99.90
11549;DHT22;61444;59.472;18.306;2022-07-03T01:28:08;13.50;99.90
11549;DHT22;61444;59.472;18.306;2022-07-03T01:30:20;13.50;99.90
11549;DHT22;61444;59.472;18.306;2022-07-03T01:32:33;13.60;99.90
11549;DHT22;61444;59.472;18.306;2022-07-03T01:34:52;13.50;99.90
11549;DHT22;61444;59.472;18.306;2022-07-03T01:37:01;13.40;99.90
11549;DHT22;61444;59.472;18.306;2022-07-03T01:39:11;13.40;99.90
11549;DHT22;61444;59.472;18.306;2022-07-03T01:41:30;13.40;99.90
11549;DHT22;61444;59.472;18.306;2022-07-03T01:43:42;13.30;99.90
11549;DHT22;61444;59.472;18.306;2022-07-03T01:45:53;13.20;99.90
11549;DHT22;61444;59.472;18.306;2022-07-03T01:48:06;13.20;99.90
11549;DHT22;61444;59.472;18.306;2022-07-03T01:50:15;13.20;99.90
11549;DHT22;61444;59.472;18.306;2022-07-03T01:52:25;13.20;99.90
11549;DHT22;61444;59.472;18.306;2022-07-03T01:54:51;13.20;99.90
11549;DHT22;61444;59.472;18.306;2022-07-03T01:57:05;13.20;99.90
11549;DHT22;61444;59.472;18.306;2022-07-03T01:59:14;13.20;99.90
11549;DHT22;61444;59.472;18.306;2022-07-03T02:01:29;13.20;99.90
11549;DHT22;61444;59.472;18.306;2022-07-03T02:03:45;13.20;99.90
11549;DHT22;61444;59.472;18.306;2022-07-03T02:06:03;13.20;99.90
11549;DHT22;61444;59.472;18.306;2022-07-03T02:08:27;13.10;99.90
11549;DHT22;61444;59.472;18.306;2022-07-03T02:10:39;13.10;99.90
11549;DHT22;61444;59.472;18.306;2022-07-03T02:13:00;13.20;99.90
11549;DHT22;61444;59.472;18.306;2022-07-03T02:15:09;13.20;99.90
11549;DHT22;61444;59.472;18.306;2022-07-03T02:17:20;13.20;99.90
11549;DHT22;61444;59.472;18.306;2022-07-03T02:19:37;13.20;99.90
11549;DHT22;61444;59.472;18.306;2022-07-03T02:21:48;13.20;99.90
11549;DHT22;61444;59.472;18.306;2022-07-03T02:24:08;13.10;99.90
11549;DHT22;61444;59.472;18.306;2022-07-03T02:26:21;13.10;99.90
11549;DHT22;61444;59.472;18.306;2022-07-03T02:28:45;13.20;99.90
11549;DHT22;61444;59.472;18.306;2022-07-03T02:31:01;13.20;99.90
11549;DHT22;61444;59.472;18.306;2022-07-03T02:33:11;13.30;99.90
11549;DHT22;61444;59.472;18.306;2022-07-03T02:35:27;13.30;99.90
11549;DHT22;61444;59.472;18.306;2022-07-03T02:37:41;13.40;99.90
11549;DHT22;61444;59.472;18.306;2022-07-03T02:39:53;13.40;99.90
11549;DHT22;61444;59.472;18.306;2022-07-03T02:42:14;13.40;99.90
11549;DHT22;61444;59.472;18.306;2022-07-03T02:44:31;13.40;99.90
11549;DHT22;61444;59.472;18.306;2022-07-03T02:46:47;13.50;99.90
11549;DHT22;61444;59.472;18.306;2022-07-03T02:49:02;13.50;99.90
11549;DHT22;61444;59.472;18.306;2022-07-03T02:51:21;13.50;99.90
11549;DHT22;61444;59.472;18.306;2022-07-03T02:53:35;13.60;99.90
11549;DHT22;61444;59.472;18.306;2022-07-03T02:55:47;13.60;99.90
11549;DHT22;61444;59.472;18.306;2022-07-03T02:58:01;13.70;99.90
11549;DHT22;61444;59.472;18.306;2022-07-03T03:00:14;13.70;99.90
11549;DHT22;61444;59.472;18.306;2022-07-03T03:02:52;13.70;99.90
11549;DHT22;61444;59.472;18.306;2022-07-03T03:05:03;13.80;99.90
11549;DHT22;61444;59.472;18.306;2022-07-03T03:07:16;13.80;99.90
11549;DHT22;61444;59.472;18.306;2022-07-03T03:09:27;13.90;99.90
11549;DHT22;61444;59.472;18.306;2022-07-03T03:11:42;14.00;99.90
11549;DHT22;61444;59.472;18.306;2022-07-03T03:13:55;14.00;99.90
11549;DHT22;61444;59.472;18.306;2022-07-03T03:16:07;14.10;99.90
11549;DHT22;61444;59.472;18.306;2022-07-03T03:18:21;14.10;99.90
11549;DHT22;61444;59.472;18.306;2022-07-03T03:20:34;14.10;99.90
11549;DHT22;61444;59.472;18.306;2022-07-03T03:22:59;14.20;99.90
11549;DHT22;61444;59.472;18.306;2022-07-03T03:25:07;14.20;99.90
11549;DHT22;61444;59.472;18.306;2022-07-03T03:27:16;14.40;99.90
11549;DHT22;61444;59.472;18.306;2022-07-03T03:29:24;14.40;99.90
11549;DHT22;61444;59.472;18.306;2022-07-03T03:31:34;14.40;99.90
11549;DHT22;61444;59.472;18.306;2022-07-03T03:33:44;14.40;99.90
11549;DHT22;61444;59.472;18.306;2022-07-03T03:35:53;14.50;99.90
11549;DHT22;61444;59.472;18.306;2022-07-03T03:38:02;14.60;99.90
11549;DHT22;61444;59.472;18.306;2022-07-03T03:40:11;14.70;99.90
11549;DHT22;61444;59.472;18.306;2022-07-03T03:42:20;14.70;99.90
11549;DHT22;61444;59.472;18.306;2022-07-03T03:44:29;14.80;99.90
11549;DHT22;61444;59.472;18.306;2022-07-03T03:46:39;14.80;99.90
11549;DHT22;61444;59.472;18.306;2022-07-03T03:48:47;14.80;99.90
11549;DHT22;61444;59.472;18.306;2022-07-03T03:50:56;14.80;99.90
11549;DHT22;61444;59.472;18.306;2022-07-03T03:53:09;14.90;99.90
11549;DHT22;61444;59.472;18.306;2022-07-03T03:55:18;15.00;99.90
11549;DHT22;61444;59.472;18.306;2022-07-03T03:57:27;15.00;99.90
11549;DHT22;61444;59.472;18.306;2022-07-03T03:59:35;15.00;99.90
11549;DHT22;61444;59.472;18.306;2022-07-03T04:01:45;15.10;99.90
